Time;durP1;ratioP1;P1;durP2;ratioP2;P2;SDS_P1;SDS_P2;PMS_P1;PMS_P2;Temp;Humidity;BMP_temperature;BMP_pressure;BME280_temperature;BME280_humidity;BME280_pressure;Samples;Min_cycle;Max_cycle;Signal;HPM_P1;HPM_P2
2024/02/02 00:00:21;;;;;;;;;;;;;;;;;;4754282;30;19957;-84
2024/02/02 00:02:47;;;;;;;;;;;;;;;;;;4728753;30;20007;-84
2024/02/02 00:05:13;;;;;;;;;;;;;;;;;;4735620;30;19922;-84
2024/02/02 00:07:39;;;;;;;;;;;;;;;;;;4739027;30;19919;-84
2024/02/02 00:10:05;;;;;;;;;;;;;;;;;;4746121;30;20368;-84
2024/02/02 00:12:31;;;;;;;;;;;;;;;;;;4736054;30;19931;-84
2024/02/02 00:14:57;;;;;;;;;;;;;;;;;;4736000;30;19926;-84
2024/02/02 00:17:23;;;;;;;;;;;;;;;;;;4737672;30;19910;-84
2024/02/02 00:19:49;;;;;;;;;;;;;;;;;;4733289;30;19924;-83
2024/02/02 00:22:15;;;;;;;;;;;;;;;;;;4751390;30;19914;-83
2024/02/02 00:24:41;;;;;;;;;;;;;;;;;;4746289;30;20264;-83
2024/02/02 00:27:07;;;;;;;5.53;2.88;;;;;;;;;;4750660;30;19972;-83
2024/02/02 00:29:33;;;;;;;12.02;4.28;;;;;;;;;;4738360;30;20060;-83
2024/02/02 00:31:59;;;;;;;8.50;3.70;;;;;;;;;;4748405;30;20506;-83
2024/02/02 00:34:25;;;;;;;13.55;3.75;;;;;;;;;;4746371;30;20040;-83
2024/02/02 00:36:51;;;;;;;6.72;3.40;;;;;;;;;;4743896;30;20754;-83
2024/02/02 00:39:17;;;;;;;14.85;3.85;;;;;;;;;;4749383;30;20059;-83
2024/02/02 00:41:43;;;;;;;7.22;3.38;;;;;;;;;;4736683;30;20064;-83
2024/02/02 00:44:09;;;;;;;7.85;3.40;;;;;;;;;;4748201;30;20032;-82
2024/02/02 00:46:35;;;;;;;9.02;4.40;;;;;;;;;;4752311;30;20036;-83
2024/02/02 00:49:02;;;;;;;8.98;3.05;;;;;;;;;;4747396;30;20040;-83
2024/02/02 00:51:28;;;;;;;14.68;6.28;;;;;;;;;;4723959;30;20119;-82
2024/02/02 00:53:54;;;;;;;6.35;3.80;;;;;;;;;;4747730;30;20123;-82
2024/02/02 00:56:20;;;;;;;7.53;4.63;;;;;;;;;;4733278;30;20037;-82
2024/02/02 00:58:46;;;;;;;26.60;5.60;;;;;;;;;;4737173;30;20526;-82
2024/02/02 01:01:12;;;;;;;12.23;4.45;;;;;;;;;;4736044;30;20025;-82
2024/02/02 01:03:38;;;;;;;7.53;4.78;;;;;;;;;;4732502;30;20392;-82
2024/02/02 01:06:04;;;;;;;18.45;4.05;;;;;;;;;;4734808;30;20117;-82
2024/02/02 01:08:30;;;;;;;6.55;4.13;;;;;;;;;;4738744;30;20040;-83
2024/02/02 01:10:57;;;;;;;6.30;3.45;;;;;;;;;;4736488;30;20559;-83
2024/02/02 01:13:23;;;;;;;12.20;4.72;;;;;;;;;;4752155;30;20765;-83
2024/02/02 01:15:49;;;;;;;9.88;4.85;;;;;;;;;;4723696;30;20040;-83
2024/02/02 01:18:16;;;;;;;8.05;4.13;;;;;;;;;;4734662;30;20040;-83
2024/02/02 01:20:42;;;;;;;11.82;4.07;;;;;;;;;;4735710;30;20039;-83
2024/02/02 01:23:09;;;;;;;11.70;3.88;;;;;;;;;;4736390;30;20043;-83
2024/02/02 01:25:35;;;;;;;11.48;3.20;;;;;;;;;;4748674;30;20350;-83
2024/02/02 01:28:01;;;;;;;13.65;4.68;;;;;;;;;;4735976;30;20468;-83
2024/02/02 01:30:29;;;;;;;4.88;3.17;;;;;;;;;;4739682;30;20072;-83
2024/02/02 01:32:55;;;;;;;10.98;4.85;;;;;;;;;;4736196;30;20044;-83
2024/02/02 01:35:22;;;;;;;11.50;3.83;;;;;;;;;;4731713;30;20139;-83
2024/02/02 01:37:48;;;;;;;5.47;2.55;;;;;;;;;;4736879;30;20039;-83
2024/02/02 01:40:14;;;;;;;6.68;3.88;;;;;;;;;;4737101;30;20098;-83
2024/02/02 01:42:40;;;;;;;15.05;5.13;;;;;;;;;;4736781;30;20075;-83
2024/02/02 01:45:06;;;;;;;7.65;3.75;;;;;;;;;;4733060;30;20502;-83
2024/02/02 01:47:32;;;;;;;15.45;4.68;;;;;;;;;;4718523;30;20473;-83
2024/02/02 01:49:58;;;;;;;7.38;3.42;;;;;;;;;;4731356;30;20037;-83
2024/02/02 01:52:24;;;;;;;7.85;3.13;;;;;;;;;;4749224;30;20048;-84
2024/02/02 01:54:50;;;;;;;13.20;4.20;;;;;;;;;;4750796;30;20098;-83
2024/02/02 01:57:16;;;;;;;11.60;3.50;;;;;;;;;;4734115;30;20040;-84
2024/02/02 01:59:42;;;;;;;8.35;3.75;;;;;;;;;;4735136;30;20494;-83
2024/02/02 02:02:08;;;;;;;8.93;3.20;;;;;;;;;;4735575;30;20071;-83
2024/02/02 02:04:35;;;;;;;9.82;5.10;;;;;;;;;;4742486;30;20047;-83
2024/02/02 02:07:02;;;;;;;10.02;3.63;;;;;;;;;;4738518;30;20047;-84
2024/02/02 02:09:28;;;;;;;16.83;3.75;;;;;;;;;;4735147;30;20040;-83
2024/02/02 02:11:55;;;;;;;16.20;5.65;;;;;;;;;;4732371;30;20052;-83
2024/02/02 02:14:21;;;;;;;13.10;7.32;;;;;;;;;;4724382;30;20041;-84
2024/02/02 02:16:50;;;;;;;8.50;5.53;;;;;;;;;;4746033;30;20064;-84
2024/02/02 02:19:16;;;;;;;10.35;4.45;;;;;;;;;;4732811;30;20036;-83
2024/02/02 02:21:42;;;;;;;9.15;3.65;;;;;;;;;;4734382;30;20037;-83
2024/02/02 02:24:08;;;;;;;7.85;3.88;;;;;;;;;;4746491;30;20063;-84
2024/02/02 02:26:35;;;;;;;5.85;3.60;;;;;;;;;;4733205;30;20115;-83
2024/02/02 02:29:01;;;;;;;11.57;4.45;;;;;;;;;;4738304;30;20036;-84
2024/02/02 02:31:27;;;;;;;4.80;2.75;;;;;;;;;;4752980;30;20035;-84
2024/02/02 02:33:53;;;;;;;10.80;3.45;;;;;;;;;;4739603;30;20048;-84
2024/02/02 02:36:23;;;;;;;4.72;2.85;;;;;;;;;;4737647;30;20060;-83
2024/02/02 02:38:49;;;;;;;5.95;4.00;;;;;;;;;;4738407;30;20061;-84
2024/02/02 02:41:15;;;;;;;10.30;3.53;;;;;;;;;;4738866;30;20036;-84
2024/02/02 02:43:41;;;;;;;10.13;3.20;;;;;;;;;;4738021;30;20044;-83
2024/02/02 02:46:08;;;;;;;8.73;3.72;;;;;;;;;;4738218;30;20043;-83
2024/02/02 02:48:36;;;;;;;12.20;4.00;;;;;;;;;;4737931;30;20784;-83
2024/02/02 02:51:03;;;;;;;13.57;4.35;;;;;;;;;;4738350;30;20044;-83
2024/02/02 02:53:29;;;;;;;8.35;3.17;;;;;;;;;;4735512;30;20032;-83
2024/02/02 02:55:55;;;;;;;4.93;2.03;;;;;;;;;;4750675;30;20036;-83
2024/02/02 02:58:21;;;;;;;3.55;2.17;;;;;;;;;;4754421;30;20047;-83
2024/02/02 03:00:47;;;;;;;6.47;3.10;;;;;;;;;;4738832;30;20329;-84
2024/02/02 03:03:13;;;;;;;5.20;2.55;;;;;;;;;;4736399;30;20055;-84
2024/02/02 03:05:40;;;;;;;21.13;4.70;;;;;;;;;;4738545;30;20048;-84
2024/02/02 03:08:09;;;;;;;27.08;9.50;;;;;;;;;;4739013;30;20040;-84
2024/02/02 03:10:38;;;;;;;9.32;3.97;;;;;;;;;;4738100;30;20705;-84
2024/02/02 03:13:04;;;;;;;6.68;3.97;;;;;;;;;;4729459;30;20443;-84
2024/02/02 03:15:31;;;;;;;12.60;4.82;;;;;;;;;;4746429;30;20049;-84
2024/02/02 03:17:57;;;;;;;3.95;3.22;;;;;;;;;;4731762;30;20413;-84
2024/02/02 03:20:26;;;;;;;4.65;2.97;;;;;;;;;;4737834;30;20031;-84
2024/02/02 03:22:53;;;;;;;6.25;4.13;;;;;;;;;;4733401;30;20041;-84
2024/02/02 03:25:22;;;;;;;16.60;4.03;;;;;;;;;;4734592;30;20400;-84
2024/02/02 03:27:51;;;;;;;6.78;3.05;;;;;;;;;;4725712;30;20044;-84
2024/02/02 03:30:19;;;;;;;8.63;4.18;;;;;;;;;;4738236;30;20476;-84
2024/02/02 03:32:45;;;;;;;14.88;4.80;;;;;;;;;;4735208;30;20040;-84
2024/02/02 03:35:11;;;;;;;8.45;3.92;;;;;;;;;;4736398;30;20064;-83
2024/02/02 03:37:37;;;;;;;12.10;6.05;;;;;;;;;;4753029;30;20032;-83
2024/02/02 03:40:04;;;;;;;6.70;4.63;;;;;;;;;;4754059;30;20079;-83
2024/02/02 03:42:30;;;;;;;14.10;5.28;;;;;;;;;;4735049;30;20063;-83
2024/02/02 03:44:57;;;;;;;7.57;5.18;;;;;;;;;;4745804;30;20036;-83
2024/02/02 03:47:24;;;;;;;10.30;4.15;;;;;;;;;;4742084;30;20395;-83
2024/02/02 03:49:50;;;;;;;7.13;3.55;;;;;;;;;;4742227;30;20483;-83
2024/02/02 03:52:16;;;;;;;12.57;4.07;;;;;;;;;;4744274;30;20052;-84
2024/02/02 03:54:42;;;;;;;24.85;5.38;;;;;;;;;;4754332;30;20020;-84
2024/02/02 03:57:40;;;;;;;;;;;;;;;;;;;;;
2024/02/02 04:02:47;;;;;;;6.70;3.13;;;;;;;;;;4733485;30;20143;-84
2024/02/02 04:05:17;;;;;;;11.18;3.72;;;;;;;;;;4720598;30;20036;-83
2024/02/02 04:07:43;;;;;;;10.73;4.43;;;;;;;;;;4719884;30;20044;-84
2024/02/02 04:10:09;;;;;;;10.45;5.15;;;;;;;;;;4717497;30;20033;-83
2024/02/02 04:12:38;;;;;;;12.38;6.18;;;;;;;;;;4711562;30;20040;-83
2024/02/02 04:15:08;;;;;;;11.80;5.30;;;;;;;;;;4717777;30;20032;-84
2024/02/02 04:17:34;;;;;;;14.88;5.82;;;;;;;;;;4718691;30;20493;-83
2024/02/02 04:20:00;;;;;;;9.70;4.22;;;;;;;;;;4712367;30;20056;-83
2024/02/02 04:22:26;;;;;;;13.45;4.38;;;;;;;;;;4734988;30;20068;-83
2024/02/02 04:24:52;;;;;;;18.45;4.60;;;;;;;;;;4718352;30;20030;-83
2024/02/02 04:27:18;;;;;;;8.48;3.80;;;;;;;;;;4722575;30;20049;-83
2024/02/02 04:29:44;;;;;;;11.50;4.75;;;;;;;;;;4720512;30;20090;-83
2024/02/02 04:32:10;;;;;;;15.13;5.13;;;;;;;;;;4720195;30;20618;-83
2024/02/02 04:34:36;;;;;;;8.63;4.40;;;;;;;;;;4736516;30;20032;-83
2024/02/02 04:37:02;;;;;;;4.10;2.65;;;;;;;;;;4719437;30;20048;-83
2024/02/02 04:39:28;;;;;;;8.95;3.83;;;;;;;;;;4719359;30;20028;-84
2024/02/02 04:41:54;;;;;;;8.27;4.13;;;;;;;;;;4719645;30;20087;-83
2024/02/02 04:44:20;;;;;;;8.77;3.78;;;;;;;;;;4718816;30;20519;-83
2024/02/02 04:46:46;;;;;;;10.05;3.42;;;;;;;;;;4719344;30;20045;-83
2024/02/02 04:49:12;;;;;;;9.18;4.50;;;;;;;;;;4715615;30;20111;-83
2024/02/02 04:51:38;;;;;;;9.32;2.90;;;;;;;;;;4710282;30;20044;-83
2024/02/02 04:54:04;;;;;;;5.38;3.83;;;;;;;;;;4707491;30;20033;-83
2024/02/02 04:56:30;;;;;;;5.75;3.47;;;;;;;;;;4733318;30;20053;-83
2024/02/02 04:58:56;;;;;;;14.25;3.30;;;;;;;;;;4718524;30;20685;-83
2024/02/02 05:01:22;;;;;;;6.22;2.97;;;;;;;;;;4734656;30;20466;-83
2024/02/02 05:03:49;;;;;;;6.55;3.10;;;;;;;;;;4719478;30;20043;-83
2024/02/02 05:06:16;;;;;;;6.78;3.35;;;;;;;;;;4719522;30;20072;-84
2024/02/02 05:08:43;;;;;;;10.65;3.33;;;;;;;;;;4716492;30;20033;-84
2024/02/02 05:11:10;;;;;;;8.18;3.05;;;;;;;;;;4733760;30;20056;-83
2024/02/02 05:13:36;;;;;;;6.72;3.38;;;;;;;;;;4731729;30;20029;-83
2024/02/02 05:16:02;;;;;;;8.82;2.63;;;;;;;;;;4719328;30;20041;-83
2024/02/02 05:18:28;;;;;;;8.82;2.05;;;;;;;;;;4707722;30;20392;-83
2024/02/02 05:20:54;;;;;;;4.07;2.83;;;;;;;;;;4717149;30;20126;-83
2024/02/02 05:23:20;;;;;;;5.22;3.15;;;;;;;;;;4711410;30;20128;-83
2024/02/02 05:25:46;;;;;;;7.05;3.00;;;;;;;;;;4717274;30;20041;-83
2024/02/02 05:28:12;;;;;;;6.80;2.15;;;;;;;;;;4714338;30;20389;-83
2024/02/02 05:30:38;;;;;;;11.57;3.25;;;;;;;;;;4721938;30;20126;-83
2024/02/02 05:33:04;;;;;;;16.75;2.83;;;;;;;;;;4733294;30;20036;-83
2024/02/02 05:35:30;;;;;;;6.75;3.55;;;;;;;;;;4716177;30;20713;-84
2024/02/02 05:37:56;;;;;;;9.60;2.35;;;;;;;;;;4715883;30;20029;-84
2024/02/02 05:40:22;;;;;;;8.15;3.90;;;;;;;;;;4718540;30;20087;-84
2024/02/02 05:42:48;;;;;;;12.15;4.70;;;;;;;;;;4732644;30;20461;-84
2024/02/02 05:45:14;;;;;;;12.70;4.03;;;;;;;;;;4719221;30;20083;-84
2024/02/02 05:47:40;;;;;;;9.73;5.82;;;;;;;;;;4713494;30;20258;-84
2024/02/02 05:50:06;;;;;;;10.15;5.57;;;;;;;;;;4719372;30;20040;-83
2024/02/02 05:52:32;;;;;;;3.50;2.33;;;;;;;;;;4717063;30;20543;-84
2024/02/02 05:54:58;;;;;;;18.05;4.63;;;;;;;;;;4716916;30;20037;-83
2024/02/02 05:57:24;;;;;;;7.38;4.50;;;;;;;;;;4718681;30;20051;-83
2024/02/02 05:59:51;;;;;;;7.75;3.45;;;;;;;;;;4706679;30;20485;-83
2024/02/02 06:02:17;;;;;;;9.00;3.38;;;;;;;;;;4719665;30;20064;-83
2024/02/02 06:04:43;;;;;;;7.25;3.60;;;;;;;;;;4722314;30;20041;-81
2024/02/02 06:07:09;;;;;;;14.88;3.40;;;;;;;;;;4733683;30;20045;-81
2024/02/02 06:09:35;;;;;;;6.88;2.28;;;;;;;;;;4736017;30;20099;-81
2024/02/02 06:12:01;;;;;;;6.25;3.88;;;;;;;;;;4722529;30;20078;-81
2024/02/02 06:14:29;;;;;;;12.52;3.75;;;;;;;;;;4717642;30;20033;-81
2024/02/02 06:16:55;;;;;;;9.27;4.28;;;;;;;;;;4715821;30;20590;-81
2024/02/02 06:19:21;;;;;;;11.15;3.00;;;;;;;;;;4730935;30;20044;-81
2024/02/02 06:21:47;;;;;;;8.63;3.45;;;;;;;;;;4715953;30;20072;-80
2024/02/02 06:24:13;;;;;;;4.18;3.28;;;;;;;;;;4720924;30;20032;-81
2024/02/02 06:26:39;;;;;;;8.10;2.85;;;;;;;;;;4737049;30;20040;-82
2024/02/02 06:29:08;;;;;;;2.97;2.22;;;;;;;;;;4716128;30;20068;-82
2024/02/02 06:31:34;;;;;;;9.88;4.30;;;;;;;;;;4736954;30;20032;-83
2024/02/02 06:34:00;;;;;;;6.20;2.40;;;;;;;;;;4720515;30;20067;-82
2024/02/02 06:36:28;;;;;;;6.78;3.92;;;;;;;;;;4734437;30;20048;-81
2024/02/02 06:38:57;;;;;;;9.18;3.45;;;;;;;;;;4737573;30;20028;-81
2024/02/02 06:41:23;;;;;;;7.95;3.33;;;;;;;;;;4737148;30;20365;-80
2024/02/02 06:43:49;;;;;;;7.03;3.42;;;;;;;;;;4731555;30;20045;-80
2024/02/02 06:46:15;;;;;;;7.30;3.13;;;;;;;;;;4723727;30;20044;-81
2024/02/02 06:48:44;;;;;;;5.32;2.88;;;;;;;;;;4723715;30;20067;-81
2024/02/02 06:51:10;;;;;;;8.98;4.25;;;;;;;;;;4720366;30;20080;-82
2024/02/02 06:53:38;;;;;;;15.80;6.85;;;;;;;;;;4731990;30;20884;-81
2024/02/02 06:56:28;;;;;;;16.42;9.55;;;;;;;;;;4736828;30;20044;-81
2024/02/02 06:58:54;;;;;;;15.32;7.00;;;;;;;;;;4713288;30;20037;-81
2024/02/02 07:01:20;;;;;;;13.25;5.30;;;;;;;;;;4707304;30;20053;-80
2024/02/02 07:03:46;;;;;;;10.68;4.95;;;;;;;;;;4735398;30;20427;-78
2024/02/02 07:06:13;;;;;;;17.05;4.78;;;;;;;;;;4724891;30;20075;-80
2024/02/02 07:08:41;;;;;;;10.23;2.92;;;;;;;;;;4728682;30;20037;-80
2024/02/02 07:11:13;;;;;;;5.95;3.40;;;;;;;;;;4735380;30;20052;-81
2024/02/02 07:13:51;;;;;;;17.67;4.65;;;;;;;;;;4732987;30;20075;-82
2024/02/02 07:16:27;;;;;;;10.43;3.38;;;;;;;;;;4734377;30;20427;-81
2024/02/02 07:18:54;;;;;;;8.82;4.50;;;;;;;;;;4729633;30;20039;-82
2024/02/02 07:21:21;;;;;;;13.35;4.53;;;;;;;;;;4727233;30;20114;-83
2024/02/02 07:23:47;;;;;;;7.18;3.67;;;;;;;;;;4726000;30;20897;-83
2024/02/02 07:26:25;;;;;;;11.00;4.00;;;;;;;;;;4724442;30;20048;-82
2024/02/02 07:28:51;;;;;;;2.20;1.77;;;;;;;;;;4729791;30;20127;-81
2024/02/02 07:31:30;;;;;;;3.92;1.98;;;;;;;;;;4733603;30;20048;-81
2024/02/02 07:34:02;;;;;;;4.30;1.73;;;;;;;;;;4719383;30;20460;-81
2024/02/02 07:36:28;;;;;;;9.00;3.00;;;;;;;;;;4710025;30;20037;-81
2024/02/02 07:38:55;;;;;;;9.63;3.28;;;;;;;;;;4725277;30;20044;-80
2024/02/02 07:41:25;;;;;;;6.50;2.88;;;;;;;;;;4734434;30;20048;-80
2024/02/02 07:43:52;;;;;;;9.32;3.17;;;;;;;;;;4725972;30;20044;-81
2024/02/02 07:46:18;;;;;;;5.00;1.88;;;;;;;;;;4730703;30;20029;-80
2024/02/02 07:48:46;;;;;;;10.13;2.85;;;;;;;;;;4721692;30;20051;-81
2024/02/02 07:51:13;;;;;;;7.60;2.60;;;;;;;;;;4724411;30;20033;-82
2024/02/02 07:53:39;;;;;;;5.93;3.08;;;;;;;;;;4719843;30;20041;-81
2024/02/02 07:56:05;;;;;;;9.15;3.40;;;;;;;;;;4716733;30;20037;-81
2024/02/02 07:58:31;;;;;;;6.55;4.13;;;;;;;;;;4724874;30;20068;-81
2024/02/02 08:00:58;;;;;;;8.20;3.30;;;;;;;;;;4735429;30;20099;-81
2024/02/02 08:03:24;;;;;;;9.80;3.83;;;;;;;;;;4712543;30;20128;-81
2024/02/02 08:05:50;;;;;;;5.60;3.03;;;;;;;;;;4720363;30;20119;-81
2024/02/02 08:08:16;;;;;;;5.18;2.03;;;;;;;;;;4729180;30;20133;-81
2024/02/02 08:10:43;;;;;;;8.93;3.40;;;;;;;;;;4731239;30;20523;-80
2024/02/02 08:13:10;;;;;;;8.63;4.32;;;;;;;;;;4729930;30;20880;-80
2024/02/02 08:15:37;;;;;;;6.07;2.88;;;;;;;;;;4723274;30;20037;-81
2024/02/02 08:18:03;;;;;;;7.70;2.72;;;;;;;;;;4721759;30;20106;-80
2024/02/02 08:20:29;;;;;;;6.78;3.88;;;;;;;;;;4718597;30;20025;-80
2024/02/02 08:22:55;;;;;;;3.63;2.03;;;;;;;;;;4722812;30;20560;-79
2024/02/02 08:25:21;;;;;;;6.60;3.05;;;;;;;;;;4725489;30;20044;-80
2024/02/02 08:27:47;;;;;;;21.67;4.50;;;;;;;;;;4720299;30;20044;-78
2024/02/02 08:30:14;;;;;;;14.05;3.83;;;;;;;;;;4723435;30;20072;-79
2024/02/02 08:32:40;;;;;;;7.93;3.75;;;;;;;;;;4718562;30;20049;-80
2024/02/02 08:35:07;;;;;;;19.15;3.25;;;;;;;;;;4720215;30;20052;-81
2024/02/02 08:37:33;;;;;;;4.88;3.03;;;;;;;;;;4724884;30;20045;-80
2024/02/02 08:39:59;;;;;;;3.72;2.35;;;;;;;;;;4729603;30;20075;-79
2024/02/02 08:42:25;;;;;;;10.25;3.35;;;;;;;;;;4728185;30;20071;-81
2024/02/02 08:44:52;;;;;;;9.45;4.05;;;;;;;;;;4727050;30;20098;-80
2024/02/02 08:47:19;;;;;;;14.63;3.75;;;;;;;;;;4719402;30;20619;-81
2024/02/02 08:49:53;;;;;;;5.85;2.53;;;;;;;;;;4726251;30;20079;-81
2024/02/02 08:52:34;;;;;;;7.50;3.53;;;;;;;;;;4726812;30;20115;-80
2024/02/02 08:55:03;;;;;;;9.33;4.00;;;;;;;;;;4727597;30;20044;-80
2024/02/02 08:57:43;;;;;;;7.40;4.25;;;;;;;;;;4732356;30;20290;-80
2024/02/02 09:00:36;;;;;;;6.55;4.30;;;;;;;;;;4712927;30;20037;-81
2024/02/02 09:03:04;;;;;;;16.88;4.43;;;;;;;;;;4721897;30;20090;-81
2024/02/02 09:05:49;;;;;;;11.10;4.57;;;;;;;;;;4720390;30;20052;-81
2024/02/02 09:08:15;;;;;;;6.53;3.95;;;;;;;;;;4724235;30;20492;-81
2024/02/02 09:10:43;;;;;;;10.55;3.97;;;;;;;;;;4718415;30;20116;-80
2024/02/02 09:13:14;;;;;;;13.00;4.63;;;;;;;;;;4720379;30;20044;-81
2024/02/02 09:15:40;;;;;;;4.32;2.95;;;;;;;;;;4721356;30;20123;-80
2024/02/02 09:18:09;;;;;;;7.05;3.80;;;;;;;;;;4722804;30;20037;-80
2024/02/02 09:20:44;;;;;;;7.03;3.80;;;;;;;;;;4726484;30;20062;-81
2024/02/02 09:23:11;;;;;;;5.60;2.88;;;;;;;;;;4731129;30;20072;-81
2024/02/02 09:25:41;;;;;;;18.17;2.47;;;;;;;;;;4727077;30;20033;-79
2024/02/02 09:28:25;;;;;;;11.07;2.63;;;;;;;;;;4722481;30;20040;-81
2024/02/02 09:30:57;;;;;;;3.17;1.95;;;;;;;;;;4726364;30;20075;-81
2024/02/02 09:33:38;;;;;;;6.10;2.15;;;;;;;;;;4722074;30;20044;-81
2024/02/02 09:36:05;;;;;;;2.47;1.50;;;;;;;;;;4716811;30;20056;-81
2024/02/02 09:38:32;;;;;;;5.03;2.88;;;;;;;;;;4721340;30;20404;-81
2024/02/02 09:41:01;;;;;;;8.98;3.08;;;;;;;;;;4715909;30;20139;-81
2024/02/02 09:43:46;;;;;;;6.78;2.63;;;;;;;;;;4717699;30;20045;-81
2024/02/02 09:46:21;;;;;;;6.60;2.95;;;;;;;;;;4720438;30;20044;-81
2024/02/02 09:49:05;;;;;;;6.90;3.13;;;;;;;;;;4729882;30;20033;-81
2024/02/02 09:51:43;;;;;;;8.48;2.95;;;;;;;;;;4728305;30;20051;-81
2024/02/02 09:54:18;;;;;;;4.85;2.35;;;;;;;;;;4730511;30;20059;-81
2024/02/02 09:57:00;;;;;;;5.97;2.63;;;;;;;;;;4720006;30;20055;-80
2024/02/02 09:59:29;;;;;;;10.07;3.70;;;;;;;;;;4718352;30;20025;-81
2024/02/02 10:01:55;;;;;;;8.73;5.20;;;;;;;;;;4721771;30;20061;-81
2024/02/02 10:04:24;;;;;;;6.80;3.42;;;;;;;;;;4726559;30;20048;-80
2024/02/02 10:07:01;;;;;;;4.18;1.95;;;;;;;;;;4722260;30;20044;-81
2024/02/02 10:09:33;;;;;;;7.00;2.53;;;;;;;;;;4722321;30;20064;-81
2024/02/02 10:12:11;;;;;;;15.85;3.83;;;;;;;;;;4722875;30;20068;-81
2024/02/02 10:14:56;;;;;;;7.80;3.80;;;;;;;;;;4721487;30;20106;-81
2024/02/02 10:17:30;;;;;;;11.20;3.95;;;;;;;;;;4720711;30;20033;-81
2024/02/02 10:20:08;;;;;;;7.00;2.65;;;;;;;;;;4716390;30;20417;-81
2024/02/02 10:22:44;;;;;;;14.18;2.83;;;;;;;;;;4722228;30;20036;-81
2024/02/02 10:25:30;;;;;;;6.85;2.67;;;;;;;;;;4729370;30;20052;-81
2024/02/02 10:27:59;;;;;;;8.57;2.08;;;;;;;;;;4716759;30;20052;-80
2024/02/02 10:30:43;;;;;;;3.85;1.98;;;;;;;;;;4720693;30;20072;-81
2024/02/02 10:33:18;;;;;;;5.00;2.47;;;;;;;;;;4720294;30;20141;-81
2024/02/02 10:35:47;;;;;;;7.00;2.22;;;;;;;;;;4719373;30;20493;-81
2024/02/02 10:38:29;;;;;;;4.88;2.05;;;;;;;;;;4714516;30;20040;-81
2024/02/02 10:41:03;;;;;;;8.20;2.00;;;;;;;;;;4724688;30;20040;-81
2024/02/02 10:43:37;;;;;;;7.32;2.13;;;;;;;;;;4727002;30;20555;-81
2024/02/02 10:46:26;;;;;;;5.90;2.67;;;;;;;;;;4725617;30;20385;-81
2024/02/02 10:49:00;;;;;;;4.75;2.03;;;;;;;;;;4722750;30;20061;-81
2024/02/02 10:51:29;;;;;;;11.07;2.45;;;;;;;;;;4725854;30;20092;-81
2024/02/02 10:54:13;;;;;;;3.92;2.45;;;;;;;;;;4720665;30;20048;-81
2024/02/02 10:56:58;;;;;;;6.30;2.60;;;;;;;;;;4703615;30;20041;-81
2024/02/02 10:59:45;;;;;;;3.40;1.55;;;;;;;;;;4732259;30;20036;-81
2024/02/02 11:02:20;;;;;;;1.67;0.90;;;;;;;;;;4730061;30;20069;-81
2024/02/02 11:04:56;;;;;;;4.35;1.95;;;;;;;;;;4732402;30;20087;-81
2024/02/02 11:07:25;;;;;;;2.72;1.10;;;;;;;;;;4712872;30;20045;-81
2024/02/02 11:09:58;;;;;;;2.25;1.45;;;;;;;;;;4725324;30;20115;-81
2024/02/02 11:12:43;;;;;;;4.22;2.00;;;;;;;;;;4725144;30;20124;-82
2024/02/02 11:15:09;;;;;;;5.20;2.35;;;;;;;;;;4726406;30;20040;-81
2024/02/02 11:17:42;;;;;;;3.45;1.83;;;;;;;;;;4726107;30;20041;-81
2024/02/02 11:20:31;;;;;;;3.10;1.38;;;;;;;;;;4724212;30;20044;-82
2024/02/02 11:23:03;;;;;;;3.38;1.30;;;;;;;;;;4696647;30;20068;-82
2024/02/02 11:25:30;;;;;;;3.53;2.50;;;;;;;;;;4725078;30;20041;-81
2024/02/02 11:28:02;;;;;;;15.38;1.67;;;;;;;;;;4726222;30;20044;-82
2024/02/02 11:30:28;;;;;;;;;;;;;;;;;;4723886;30;20561;-82
2024/02/02 11:33:13;;;;;;;5.30;1.35;;;;;;;;;;4731590;30;19930;-81
2024/02/02 11:35:45;;;;;;;3.42;1.73;;;;;;;;;;4724078;30;20039;-81
2024/02/02 11:38:29;;;;;;;4.10;1.10;;;;;;;;;;4733547;30;20032;-81
2024/02/02 11:40:56;;;;;;;2.95;0.88;;;;;;;;;;4724715;30;20044;-79
2024/02/02 11:43:22;;;;;;;2.88;1.38;;;;;;;;;;4726907;30;20046;-80
2024/02/02 11:45:49;;;;;;;3.50;1.42;;;;;;;;;;4728574;30;20072;-82
2024/02/02 11:48:26;;;;;;;4.93;1.38;;;;;;;;;;4722347;30;20041;-81
2024/02/02 11:50:53;;;;;;;2.60;1.30;;;;;;;;;;4714971;30;20074;-81
2024/02/02 11:53:35;;;;;;;3.60;1.38;;;;;;;;;;4731747;30;20052;-81
2024/02/02 11:56:04;;;;;;;2.50;1.27;;;;;;;;;;4721332;30;20041;-80
2024/02/02 11:58:32;;;;;;;4.97;1.38;;;;;;;;;;4726414;30;20033;-80
2024/02/02 12:01:13;;;;;;;1.25;0.60;;;;;;;;;;4720340;30;20068;-80
2024/02/02 12:03:53;;;;;;;1.83;0.85;;;;;;;;;;4728232;30;20037;-81
2024/02/02 12:06:20;;;;;;;1.05;0.60;;;;;;;;;;4721203;30;20079;-80
2024/02/02 12:08:52;;;;;;;2.45;0.93;;;;;;;;;;4725881;30;20037;-80
2024/02/02 12:11:19;;;;;;;4.20;1.08;;;;;;;;;;4718924;30;20040;-80
2024/02/02 12:13:45;;;;;;;5.93;1.70;;;;;;;;;;4716710;30;20048;-80
2024/02/02 12:16:11;;;;;;;3.60;2.15;;;;;;;;;;4728230;30;20605;-80
2024/02/02 12:18:37;;;;;;;1.75;1.17;;;;;;;;;;4725931;30;20174;-80
2024/02/02 12:21:11;;;;;;;1.98;0.88;;;;;;;;;;4729996;30;20044;-81
2024/02/02 12:23:37;;;;;;;2.30;1.25;;;;;;;;;;4725665;30;20102;-80
2024/02/02 12:26:03;;;;;;;26.50;2.00;;;;;;;;;;4722219;30;20075;-81
2024/02/02 12:28:29;;;;;;;2.58;0.57;;;;;;;;;;4731264;30;20041;-81
2024/02/02 12:30:55;;;;;;;8.38;1.38;;;;;;;;;;4724130;30;20033;-81
2024/02/02 12:33:21;;;;;;;4.40;1.63;;;;;;;;;;4728409;30;20091;-80
2024/02/02 12:35:47;;;;;;;3.83;1.40;;;;;;;;;;4723331;30;20037;-80
2024/02/02 12:38:23;;;;;;;3.85;1.63;;;;;;;;;;4725240;30;20167;-81
2024/02/02 12:40:49;;;;;;;1.75;0.80;;;;;;;;;;4718262;30;20033;-80
2024/02/02 12:43:22;;;;;;;2.85;0.90;;;;;;;;;;4726521;30;20037;-81
2024/02/02 12:45:48;;;;;;;4.13;1.85;;;;;;;;;;4731874;30;20041;-80
2024/02/02 12:48:14;;;;;;;1.77;1.02;;;;;;;;;;4722937;30;20059;-80
2024/02/02 12:50:43;;;;;;;5.15;2.13;;;;;;;;;;4729533;30;20079;-80
2024/02/02 12:53:13;;;;;;;1.98;0.85;;;;;;;;;;4721838;30;20048;-81
2024/02/02 12:55:39;;;;;;;1.90;0.95;;;;;;;;;;4726423;30;20036;-81
2024/02/02 12:58:05;;;;;;;1.38;0.77;;;;;;;;;;4721153;30;20087;-80
2024/02/02 13:00:31;;;;;;;2.72;1.48;;;;;;;;;;4718111;30;20064;-80
2024/02/02 13:02:59;;;;;;;2.10;1.00;;;;;;;;;;4722067;30;20407;-80
2024/02/02 13:05:26;;;;;;;2.13;1.08;;;;;;;;;;4728265;30;20052;-81
2024/02/02 13:07:52;;;;;;;3.95;2.08;;;;;;;;;;4725953;30;20817;-81
2024/02/02 13:10:37;;;;;;;5.88;1.33;;;;;;;;;;4727867;30;20049;-82
2024/02/02 13:13:14;;;;;;;3.17;1.13;;;;;;;;;;4716908;30;20076;-81
2024/02/02 13:15:40;;;;;;;1.53;0.93;;;;;;;;;;4725668;30;20037;-81
2024/02/02 13:18:12;;;;;;;1.00;0.63;;;;;;;;;;4714575;30;20068;-82
2024/02/02 13:20:38;;;;;;;0.93;0.68;;;;;;;;;;4726535;30;20074;-81
2024/02/02 13:23:10;;;;;;;2.20;1.25;;;;;;;;;;4723999;30;20048;-81
2024/02/02 13:25:42;;;;;;;5.03;1.20;;;;;;;;;;4708632;30;20812;-81
2024/02/02 13:28:18;;;;;;;1.50;1.05;;;;;;;;;;4714712;30;20045;-81
2024/02/02 13:31:04;;;;;;;2.75;0.95;;;;;;;;;;4727122;30;20050;-81
2024/02/02 13:33:30;;;;;;;13.60;1.15;;;;;;;;;;4720383;30;20037;-81
2024/02/02 13:36:01;;;;;;;4.68;2.33;;;;;;;;;;4718377;30;20037;-80
2024/02/02 13:38:30;;;;;;;8.45;2.67;;;;;;;;;;4723311;30;20029;-81
2024/02/02 13:40:57;;;;;;;5.07;2.35;;;;;;;;;;4720395;30;20110;-80
2024/02/02 13:43:27;;;;;;;7.75;2.72;;;;;;;;;;4716178;30;20045;-80
2024/02/02 13:46:01;;;;;;;13.88;2.30;;;;;;;;;;4720908;30;20048;-80
2024/02/02 13:48:35;;;;;;;4.25;2.63;;;;;;;;;;4706825;30;20057;-80
2024/02/02 13:51:01;;;;;;;5.65;2.97;;;;;;;;;;4712094;30;20048;-80
2024/02/02 13:53:27;;;;;;;5.15;3.17;;;;;;;;;;4723486;30;20032;-81
2024/02/02 13:55:53;;;;;;;4.78;2.72;;;;;;;;;;4727607;30;20500;-81
2024/02/02 13:58:21;;;;;;;6.57;3.42;;;;;;;;;;4731034;30;20435;-81
2024/02/02 14:00:47;;;;;;;6.68;2.85;;;;;;;;;;4719937;30;20180;-81
2024/02/02 14:03:17;;;;;;;7.32;2.80;;;;;;;;;;4714302;30;20388;-81
2024/02/02 14:05:43;;;;;;;6.88;2.85;;;;;;;;;;4716958;30;20498;-81
2024/02/02 14:08:09;;;;;;;6.13;3.28;;;;;;;;;;4724732;30;20063;-81
2024/02/02 14:10:50;;;;;;;8.27;3.53;;;;;;;;;;4727027;30;20037;-80
2024/02/02 14:13:18;;;;;;;5.07;2.05;;;;;;;;;;4721097;30;20037;-81
2024/02/02 14:15:45;;;;;;;4.43;1.88;;;;;;;;;;4717716;30;20045;-80
2024/02/02 14:18:13;;;;;;;4.57;2.92;;;;;;;;;;4726304;30;20033;-80
2024/02/02 14:20:39;;;;;;;11.15;2.97;;;;;;;;;;4724924;30;20029;-80
2024/02/02 14:23:12;;;;;;;5.53;3.38;;;;;;;;;;4730395;30;20051;-80
2024/02/02 14:25:38;;;;;;;4.45;2.75;;;;;;;;;;4727195;30;20029;-81
2024/02/02 14:28:17;;;;;;;4.85;3.25;;;;;;;;;;4728173;30;20483;-81
2024/02/02 14:30:44;;;;;;;8.95;3.90;;;;;;;;;;4722810;30;20119;-79
2024/02/02 14:33:13;;;;;;;8.90;2.53;;;;;;;;;;4726271;30;20041;-79
2024/02/02 14:35:39;;;;;;;5.53;2.90;;;;;;;;;;4720761;30;20029;-79
2024/02/02 14:38:06;;;;;;;13.02;2.78;;;;;;;;;;4724376;30;20551;-79
2024/02/02 14:40:32;;;;;;;5.75;3.03;;;;;;;;;;4719176;30;20052;-79
2024/02/02 14:42:58;;;;;;;6.55;2.35;;;;;;;;;;4729626;30;20396;-79
2024/02/02 14:45:24;;;;;;;6.63;1.95;;;;;;;;;;4727845;30;20040;-80
2024/02/02 14:47:50;;;;;;;6.03;3.33;;;;;;;;;;4718403;30;20045;-79
2024/02/02 14:50:17;;;;;;;4.80;2.45;;;;;;;;;;4728205;30;20040;-81
2024/02/02 14:52:44;;;;;;;7.20;3.63;;;;;;;;;;4731713;30;20052;-79
2024/02/02 14:55:10;;;;;;;5.13;3.25;;;;;;;;;;4730510;30;20045;-80